TimeEST,TemperatureF,Dew PointF,Humidity,Sea Level PressureIn,VisibilityMPH,Wind Direction,Wind SpeedMPH,Gust SpeedMPH,PrecipitationIn,Events,Conditions,WindDirDegrees,DateUTC
12:12 AM,19.8,7.5,59,30.54,10.0,NW,12.7,24.2,N/A,,Overcast,320,2013-11-24 05:12:00
12:32 AM,19.9,6.8,57,30.54,10.0,NNW,9.2,20.7,N/A,,Overcast,330,2013-11-24 05:32:00
12:52 AM,19.8,6.8,57,30.53,10.0,NW,10.4,21.9,N/A,,Overcast,320,2013-11-24 05:52:00
1:12 AM,19.8,7.5,59,30.53,10.0,NW,12.7,19.6,N/A,,Overcast,320,2013-11-24 06:12:00
1:33 AM,19.9,6.6,56,30.53,10.0,NW,9.2,-,N/A,,Overcast,320,2013-11-24 06:33:00
1:53 AM,19.9,7.0,57,30.53,10.0,NW,9.2,21.9,N/A,,Overcast,320,2013-11-24 06:53:00
2:13 AM,19.8,9.5,64,30.53,7.0,NW,10.4,19.6,N/A,,Overcast,310,2013-11-24 07:13:00
2:33 AM,19.9,7.2,58,30.53,10.0,NW,8.1,16.1,N/A,,Overcast,310,2013-11-24 07:33:00
2:53 AM,20.1,8.1,60,30.54,10.0,NW,10.4,20.7,N/A,,Overcast,320,2013-11-24 07:53:00
3:13 AM,19.8,10.9,69,30.54,7.0,NW,13.8,19.6,N/A,Snow,Light Snow,320,2013-11-24 08:13:00
3:33 AM,19.6,11.8,72,30.54,5.0,NW,12.7,20.7,N/A,Snow,Light Snow,320,2013-11-24 08:33:00
3:53 AM,19.4,12.2,74,30.54,5.0,NW,13.8,25.3,N/A,Snow,Light Snow,310,2013-11-24 08:53:00
4:14 AM,19.6,9.5,65,30.53,7.0,NW,9.2,17.3,N/A,Snow,Light Snow,310,2013-11-24 09:14:00
4:34 AM,19.4,10.8,69,30.53,7.0,NW,12.7,18.4,N/A,Snow,Light Snow,320,2013-11-24 09:34:00
4:54 AM,19.4,11.5,71,30.53,7.0,NW,10.4,19.6,N/A,Snow,Light Snow,320,2013-11-24 09:54:00
5:14 AM,19.6,9.9,66,30.53,10.0,NW,9.2,-,N/A,Snow,Light Snow,320,2013-11-24 10:14:00
5:34 AM,19.4,8.2,62,30.54,10.0,NNW,11.5,17.3,N/A,,Overcast,330,2013-11-24 10:34:00
5:54 AM,19.4,8.6,63,30.54,10.0,NNW,9.2,-,N/A,,Overcast,340,2013-11-24 10:54:00
6:14 AM,19.4,8.4,62,30.55,10.0,NNW,6.9,-,N/A,,Overcast,330,2013-11-24 11:14:00
6:35 AM,19.6,8.6,62,30.55,10.0,NNW,9.2,18.4,N/A,,Overcast,330,2013-11-24 11:35:00
6:55 AM,19.8,9.3,64,30.55,10.0,NW,9.2,20.7,N/A,,Overcast,320,2013-11-24 11:55:00
7:15 AM,19.4,9.5,65,30.55,7.0,NNW,6.9,-,N/A,Snow,Light Snow,330,2013-11-24 12:15:00
7:35 AM,19.8,10.6,68,30.55,10.0,NNW,8.1,-,N/A,Snow,Light Snow,330,2013-11-24 12:35:00
7:55 AM,19.8,10.8,68,30.56,10.0,NW,8.1,-,N/A,,Overcast,310,2013-11-24 12:55:00
8:15 AM,19.8,9.7,65,30.55,10.0,NNW,4.6,-,N/A,,Overcast,330,2013-11-24 13:15:00
8:35 AM,19.8,9.0,63,30.55,10.0,NNW,6.9,-,N/A,,Overcast,340,2013-11-24 13:35:00
8:56 AM,19.9,8.1,60,30.56,10.0,NNW,8.1,-,N/A,,Overcast,340,2013-11-24 13:56:00
9:16 AM,19.9,8.4,61,30.56,10.0,WNW,10.4,-,N/A,,Mostly Cloudy,300,2013-11-24 14:16:00
9:36 AM,20.7,9.0,61,30.56,10.0,WNW,8.1,-,N/A,,Mostly Cloudy,300,2013-11-24 14:36:00
9:56 AM,21.2,9.5,61,30.57,10.0,NW,9.2,-,N/A,,Overcast,310,2013-11-24 14:56:00
10:16 AM,21.0,10.8,65,30.56,10.0,NW,9.2,-,N/A,,Overcast,320,2013-11-24 15:16:00
10:36 AM,21.2,12.2,68,30.56,7.0,NW,6.9,-,N/A,Snow,Light Snow,320,2013-11-24 15:36:00
10:56 AM,21.2,12.4,69,30.56,10.0,NW,10.4,-,N/A,,Overcast,320,2013-11-24 15:56:00
11:11 AM,21.4,11.3,65,30.56,10.0,WNW,6.9,-,N/A,,Overcast,300,2013-11-24 16:11:00
11:31 AM,21.9,12.0,66,30.55,10.0,West,6.9,-,N/A,,Overcast,270,2013-11-24 16:31:00
11:51 AM,21.6,11.5,65,30.54,10.0,WNW,6.9,-,N/A,Snow,Light Snow,290,2013-11-24 16:51:00
12:11 PM,21.6,11.5,65,30.53,10.0,West,4.6,-,N/A,Snow,Light Snow,270,2013-11-24 17:11:00
12:32 PM,22.1,12.4,66,30.52,10.0,WNW,6.9,-,N/A,,Overcast,290,2013-11-24 17:32:00
12:52 PM,22.3,11.7,64,30.51,10.0,West,4.6,-,N/A,,Overcast,270,2013-11-24 17:52:00
1:12 PM,21.9,12.7,68,30.50,10.0,WSW,6.9,-,N/A,Snow,Light Snow,250,2013-11-24 18:12:00
1:32 PM,22.3,13.6,69,30.49,10.0,WSW,9.2,-,N/A,Snow,Light Snow,250,2013-11-24 18:32:00
1:52 PM,22.1,12.4,66,30.49,10.0,West,9.2,16.1,N/A,,Overcast,260,2013-11-24 18:52:00
2:12 PM,22.1,12.6,67,30.49,10.0,WSW,9.2,17.3,N/A,,Overcast,250,2013-11-24 19:12:00
2:32 PM,22.1,12.2,66,30.48,10.0,West,6.9,-,N/A,,Overcast,260,2013-11-24 19:32:00
2:52 PM,22.1,12.2,66,30.47,10.0,WSW,8.1,-,N/A,,Overcast,250,2013-11-24 19:52:00
3:12 PM,22.6,11.8,63,30.46,10.0,WSW,8.1,-,N/A,,Overcast,240,2013-11-24 20:12:00
3:32 PM,23.0,11.8,62,30.46,10.0,SW,8.1,-,N/A,,Scattered Clouds,220,2013-11-24 20:32:00
3:53 PM,22.6,10.6,60,30.45,10.0,SW,6.9,-,N/A,,Scattered Clouds,220,2013-11-24 20:53:00
4:13 PM,22.1,11.5,64,30.43,10.0,SSW,5.8,-,N/A,,Scattered Clouds,200,2013-11-24 21:13:00
4:33 PM,22.1,11.3,63,30.42,10.0,South,6.9,-,N/A,,Scattered Clouds,190,2013-11-24 21:33:00
4:53 PM,22.8,11.1,61,30.41,10.0,SSW,9.2,-,N/A,,Mostly Cloudy,210,2013-11-24 21:53:00
5:13 PM,23.7,12.9,63,30.40,10.0,SSW,6.9,-,N/A,,Overcast,200,2013-11-24 22:13:00
5:33 PM,22.5,12.4,65,30.40,10.0,SSE,10.4,-,N/A,,Overcast,160,2013-11-24 22:33:00
5:53 PM,22.1,12.6,67,30.38,10.0,SSE,10.4,-,N/A,,Overcast,160,2013-11-24 22:53:00
6:14 PM,22.1,12.2,66,30.36,10.0,South,11.5,-,N/A,,Mostly Cloudy,170,2013-11-24 23:14:00
6:34 PM,22.1,11.8,65,30.35,10.0,SSE,12.7,16.1,N/A,,Scattered Clouds,160,2013-11-24 23:34:00
6:54 PM,22.6,12.0,64,30.34,10.0,South,11.5,-,N/A,,Mostly Cloudy,170,2013-11-24 23:54:00
7:14 PM,23.0,12.7,65,30.33,10.0,SSE,10.4,17.3,N/A,,Mostly Cloudy,160,2013-11-25 00:14:00
7:34 PM,23.0,12.6,64,30.31,10.0,South,11.5,17.3,N/A,,Mostly Cloudy,170,2013-11-25 00:34:00
7:54 PM,23.0,12.9,65,30.29,10.0,South,11.5,19.6,N/A,,Mostly Cloudy,170,2013-11-25 00:54:00
8:14 PM,23.0,13.1,66,30.27,10.0,South,10.4,16.1,N/A,,Mostly Cloudy,170,2013-11-25 01:14:00
8:34 PM,23.2,13.3,66,30.26,10.0,South,10.4,-,N/A,,Scattered Clouds,170,2013-11-25 01:34:00
8:54 PM,23.5,13.8,66,30.24,10.0,South,11.5,16.1,N/A,,Scattered Clouds,170,2013-11-25 01:54:00
9:14 PM,25.0,15.6,68,30.23,10.0,South,11.5,19.6,N/A,,Scattered Clouds,180,2013-11-25 02:14:00
9:34 PM,27.9,18.9,69,30.22,10.0,SSW,13.8,26.5,N/A,,Mostly Cloudy,210,2013-11-25 02:34:00
9:54 PM,30.2,19.2,64,30.20,10.0,SSW,15.0,34.5,N/A,,Mostly Cloudy,200,2013-11-25 02:54:00
10:14 PM,31.1,20.7,65,30.20,10.0,SW,16.1,32.2,N/A,,Scattered Clouds,220,2013-11-25 03:14:00
10:35 PM,31.1,20.5,65,30.20,10.0,SSW,15.0,28.8,N/A,,Mostly Cloudy,210,2013-11-25 03:35:00
10:55 PM,30.9,20.5,65,30.20,10.0,SW,23.0,35.7,N/A,,Scattered Clouds,220,2013-11-25 03:55:00
11:15 PM,31.1,20.5,65,30.19,10.0,SW,21.9,36.8,N/A,,Scattered Clouds,220,2013-11-25 04:15:00
11:35 PM,31.5,20.3,63,30.17,10.0,SSW,23.0,32.2,N/A,,Clear,210,2013-11-25 04:35:00
11:55 PM,31.8,21.0,64,30.16,10.0,SSW,21.9,35.7,N/A,,Clear,210,2013-11-25 04:55:00